Time;durP1;ratioP1;P1;durP2;ratioP2;P2;SDS_P1;SDS_P2;PMS_P1;PMS_P2;Temp;Humidity;BMP_temperature;BMP_pressure;BME280_temperature;BME280_humidity;BME280_pressure;Samples;Min_cycle;Max_cycle;Signal;HPM_P1;HPM_P2
2023/02/08 00:02:06;;;;;;;37.85;16.58;;;;;;;3.14;66.21;104050.63;4926912;28;20052;-41
2023/02/08 00:04:31;;;;;;;34.70;16.63;;;;;;;3.15;66.25;104049.88;4923553;28;20142;-38
2023/02/08 00:06:56;;;;;;;29.60;15.88;;;;;;;3.16;65.97;104037.91;4926874;28;20111;-41
2023/02/08 00:09:22;;;;;;;33.08;15.85;;;;;;;3.14;66.33;104035.16;4923582;28;20074;-40
2023/02/08 00:11:47;;;;;;;31.25;15.95;;;;;;;3.13;66.27;104041.06;4926686;28;20085;-43
2023/02/08 00:14:12;;;;;;;32.22;15.73;;;;;;;3.12;65.86;104047.00;4927082;28;20035;-41
2023/02/08 00:16:38;;;;;;;31.48;15.27;;;;;;;3.12;66.44;104035.78;4922900;28;20048;-42
2023/02/08 00:19:03;;;;;;;33.15;15.60;;;;;;;3.07;65.92;104035.34;4927194;28;20398;-46
2023/02/08 00:21:29;;;;;;;32.42;15.93;;;;;;;3.16;66.61;104025.91;4922901;28;20043;-40
2023/02/08 00:23:54;;;;;;;30.38;15.38;;;;;;;3.19;66.22;104020.13;4926795;28;20061;-40
2023/02/08 00:26:19;;;;;;;34.20;16.20;;;;;;;3.12;66.43;104017.72;4923347;28;20059;-38
2023/02/08 00:28:45;;;;;;;32.22;15.82;;;;;;;3.03;66.64;104020.38;4928996;28;20118;-41
2023/02/08 00:31:10;;;;;;;33.35;16.40;;;;;;;3.01;66.25;104020.97;4929265;28;20466;-41
2023/02/08 00:33:35;;;;;;;33.53;16.25;;;;;;;2.95;65.69;104013.59;4926633;28;20036;-40
2023/02/08 00:36:03;;;;;;;31.98;15.85;;;;;;;2.94;66.24;104019.50;4929575;28;20034;-44
2023/02/08 00:38:29;;;;;;;31.80;16.20;;;;;;;2.91;66.25;104010.59;4925456;28;20035;-41
2023/02/08 00:40:54;;;;;;;33.38;16.23;;;;;;;2.90;66.28;104011.34;4929146;28;20034;-41
2023/02/08 00:43:20;;;;;;;31.10;16.08;;;;;;;2.91;66.10;104008.00;4925872;28;20255;-41
2023/02/08 00:45:45;;;;;;;31.77;15.35;;;;;;;2.92;66.21;104010.72;4929875;28;20032;-42
2023/02/08 00:48:10;;;;;;;32.63;16.23;;;;;;;2.96;66.94;104012.81;4929810;28;20401;-39
2023/02/08 00:50:36;;;;;;;30.30;15.57;;;;;;;3.02;66.62;104012.50;4924625;28;20043;-40
2023/02/08 00:53:01;;;;;;;33.97;16.42;;;;;;;3.02;66.43;104003.09;4927560;28;20502;-40
2023/02/08 00:55:27;;;;;;;31.45;15.80;;;;;;;3.03;66.70;104014.31;4921608;28;20089;-40
2023/02/08 00:57:52;;;;;;;34.13;15.95;;;;;;;3.05;66.63;104011.09;4926314;28;20042;-41
2023/02/08 01:00:17;;;;;;;30.95;15.90;;;;;;;3.06;66.97;104012.00;4927662;28;20094;-39
2023/02/08 01:02:43;;;;;;;32.40;15.75;;;;;;;3.08;66.60;104013.97;4920648;28;20536;-42
2023/02/08 01:05:08;;;;;;;30.10;15.35;;;;;;;3.08;65.73;104023.38;4924549;28;20050;-41
2023/02/08 01:07:37;;;;;;;34.30;15.75;;;;;;;3.05;65.90;104018.81;4920136;28;20059;-41
2023/02/08 01:10:05;;;;;;;27.92;14.88;;;;;;;3.07;66.00;104021.56;4925957;28;20046;-40
2023/02/08 01:12:30;;;;;;;30.52;15.80;;;;;;;3.08;65.79;104028.53;4921390;28;20066;-40
2023/02/08 01:14:55;;;;;;;30.50;14.77;;;;;;;3.06;65.88;104030.94;4926558;28;20031;-41
2023/02/08 01:17:21;;;;;;;31.20;15.10;;;;;;;3.02;66.18;104021.13;4925437;28;20028;-41
2023/02/08 01:19:46;;;;;;;29.80;15.10;;;;;;;2.95;66.06;104020.41;4927984;28;20533;-40
2023/02/08 01:22:11;;;;;;;32.83;15.38;;;;;;;2.88;66.42;104020.59;4928581;28;20135;-41
2023/02/08 01:24:36;;;;;;;31.33;15.57;;;;;;;2.91;66.17;104016.66;4925328;28;20069;-44
2023/02/08 01:27:02;;;;;;;32.83;16.23;;;;;;;2.98;65.98;104005.25;4928975;28;20059;-45
2023/02/08 01:29:27;;;;;;;31.88;15.73;;;;;;;2.89;65.35;104019.81;4924762;28;20048;-41
2023/02/08 01:31:52;;;;;;;30.33;15.25;;;;;;;2.89;65.55;104014.66;4927962;28;20461;-41
2023/02/08 01:34:18;;;;;;;32.00;15.38;;;;;;;2.82;65.64;104020.91;4927779;28;20032;-40
2023/02/08 01:36:43;;;;;;;33.40;15.55;;;;;;;2.78;65.50;104019.72;4925923;28;20028;-39
2023/02/08 01:39:10;;;;;;;32.08;16.17;;;;;;;2.75;65.84;104009.13;4928627;28;20055;-41
2023/02/08 01:41:38;;;;;;;31.60;15.35;;;;;;;2.59;65.55;104013.59;4924767;28;20139;-41
2023/02/08 01:44:10;;;;;;;33.33;15.07;;;;;;;2.40;66.83;104017.72;4927720;28;20503;-40
2023/02/08 01:46:38;;;;;;;35.42;16.20;;;;;;;2.43;66.54;104021.53;4920446;28;20094;-40
2023/02/08 01:49:17;;;;;;;30.10;15.30;;;;;;;2.42;66.06;104013.66;4924327;28;20032;-40
2023/02/08 01:51:51;;;;;;;30.15;15.20;;;;;;;2.37;65.59;104009.72;4919348;28;20039;-44
2023/02/08 01:54:20;;;;;;;31.45;15.38;;;;;;;2.31;66.14;104004.91;4925752;28;20028;-40
2023/02/08 01:56:47;;;;;;;29.58;14.98;;;;;;;2.32;65.95;104006.69;4924017;28;20486;-41
2023/02/08 01:59:18;;;;;;;31.45;15.05;;;;;;;2.26;65.60;104006.09;4924362;28;20028;-43
2023/02/08 02:01:46;;;;;;;35.28;14.93;;;;;;;2.27;66.41;104009.56;4918474;28;20043;-41
2023/02/08 02:04:12;;;;;;;30.60;15.15;;;;;;;2.29;65.69;104005.50;4924070;28;20174;-40
2023/02/08 02:06:45;;;;;;;30.67;14.73;;;;;;;2.25;66.06;103996.59;4920334;28;20506;-41
2023/02/08 02:09:18;;;;;;;33.20;15.18;;;;;;;2.27;65.73;104000.19;4924117;28;20063;-41
2023/02/08 02:11:43;;;;;;;36.67;15.02;;;;;;;2.27;65.84;104004.44;4924351;28;20039;-41
2023/02/08 02:14:10;;;;;;;31.27;15.70;;;;;;;2.25;66.51;104014.59;4930292;28;20036;-41
2023/02/08 02:16:35;;;;;;;30.90;15.07;;;;;;;2.25;66.17;104003.41;4922641;28;20109;-40
2023/02/08 02:19:01;;;;;;;29.77;15.45;;;;;;;2.28;66.28;104003.69;4925922;28;20621;-42
2023/02/08 02:21:50;;;;;;;33.25;16.23;;;;;;;2.26;65.51;104003.53;4921395;28;20460;-42
2023/02/08 02:24:18;;;;;;;31.95;15.70;;;;;;;2.25;65.97;103994.00;4930131;28;20063;-40
2023/02/08 02:26:52;;;;;;;30.83;15.50;;;;;;;2.26;66.47;103992.31;4923726;28;20062;-41
2023/02/08 02:29:35;;;;;;;32.30;16.20;;;;;;;2.27;65.96;103996.72;4927401;28;20063;-41
2023/02/08 02:32:16;;;;;;;32.70;16.00;;;;;;;2.25;66.13;103988.88;4920987;28;20115;-42
2023/02/08 02:34:41;;;;;;;31.33;15.52;;;;;;;2.25;65.89;103995.69;4919505;28;20421;-42
2023/02/08 02:37:12;;;;;;;30.73;15.80;;;;;;;2.24;66.02;103986.13;4923841;28;20185;-40
2023/02/08 02:39:41;;;;;;;33.03;15.85;;;;;;;2.23;66.36;103989.47;4921670;28;21770;-42
2023/02/08 02:45:19;;;;;;;32.38;15.93;;;;;;;2.23;65.76;103998.09;4919439;28;20123;-41
2023/02/08 02:47:58;;;;;;;33.72;15.73;;;;;;;2.22;65.56;103991.13;4918874;28;20506;-38
2023/02/08 02:50:33;;;;;;;30.50;15.68;;;;;;;2.21;66.50;103986.72;4917713;28;20121;-41
2023/02/08 02:53:19;;;;;;;31.85;16.05;;;;;;;2.24;66.13;103986.13;4922031;28;20554;-42
2023/02/08 02:55:50;;;;;;;31.23;15.57;;;;;;;2.23;66.40;103982.66;4918600;28;20254;-41
2023/02/08 02:58:20;;;;;;;35.53;16.77;;;;;;;2.20;66.29;103978.84;4922027;28;20035;-42
2023/02/08 03:00:52;;;;;;;32.75;16.35;;;;;;;2.18;66.56;103982.97;4921615;28;20040;-40
2023/02/08 03:03:21;;;;;;;32.17;15.43;;;;;;;2.17;66.70;103989.78;4927595;28;20071;-41
2023/02/08 03:05:47;;;;;;;31.60;16.30;;;;;;;2.15;66.52;103981.00;4924469;28;20383;-41
2023/02/08 03:08:34;;;;;;;30.80;16.33;;;;;;;2.14;65.72;103975.69;4927060;28;20043;-41
2023/02/08 03:11:12;;;;;;;33.60;15.93;;;;;;;2.12;66.10;103980.72;4923273;28;20040;-41
2023/02/08 03:13:51;;;;;;;33.97;16.48;;;;;;;2.13;66.09;103974.81;4923735;28;20128;-41
2023/02/08 03:16:25;;;;;;;34.33;16.92;;;;;;;2.11;67.01;103970.25;4927770;28;20035;-41
2023/02/08 03:19:06;;;;;;;34.38;17.13;;;;;;;2.10;66.95;103974.50;4923743;28;20036;-41
2023/02/08 03:21:55;;;;;;;32.00;16.88;;;;;;;2.11;66.77;103962.53;4927071;28;20043;-41
2023/02/08 03:24:21;;;;;;;34.13;16.52;;;;;;;2.12;67.09;103964.34;4976402;22;20092;-75
2023/02/08 03:27:35;;;;;;;35.05;16.90;;;;;;;2.13;66.70;103964.53;4975284;28;20038;-75
2023/02/08 03:30:26;;;;;;;33.10;15.98;;;;;;;2.20;66.36;103960.84;4971940;28;20042;-75
2023/02/08 03:33:24;;;;;;;32.10;15.88;;;;;;;2.23;66.46;103949.19;4977762;28;20038;-75
2023/02/08 03:36:00;;;;;;;33.88;16.17;;;;;;;2.15;66.80;103952.69;5009934;28;20511;-75
2023/02/08 03:38:32;;;;;;;31.77;16.52;;;;;;;2.22;66.97;103951.59;4971968;28;20042;-74
2023/02/08 03:41:01;;;;;;;35.80;17.42;;;;;;;2.24;66.42;103953.59;4978395;28;20042;-74
2023/02/08 03:43:40;;;;;;;33.75;16.55;;;;;;;2.23;66.54;103949.19;4978687;28;20123;-75
2023/02/08 03:46:12;;;;;;;33.63;16.35;;;;;;;2.22;66.09;103955.09;4994303;22;20511;-42
2023/02/08 03:48:43;;;;;;;33.55;16.75;;;;;;;2.18;66.90;103955.56;4978274;28;20054;-44
2023/02/08 03:51:09;;;;;;;38.05;17.48;;;;;;;2.14;66.23;103948.28;4982068;28;20030;-43
2023/02/08 03:53:38;;;;;;;35.42;17.60;;;;;;;2.12;66.81;103954.97;4977853;28;20095;-43
2023/02/08 03:56:10;;;;;;;33.75;17.27;;;;;;;2.13;66.65;103959.38;4964996;28;20026;-41
2023/02/08 03:58:50;;;;;;;34.40;16.80;;;;;;;2.11;65.88;103952.25;4979852;28;20092;-43
2023/02/08 04:01:23;;;;;;;34.85;17.45;;;;;;;2.08;66.14;103962.22;4981438;28;20474;-42
2023/02/08 04:03:52;;;;;;;32.75;16.48;;;;;;;2.05;66.31;103960.28;4978723;28;20041;-41
2023/02/08 04:06:18;;;;;;;34.03;16.88;;;;;;;2.07;65.98;103960.44;4982052;28;20034;-44
2023/02/08 04:08:44;;;;;;;33.30;16.90;;;;;;;2.06;66.88;103961.19;4978810;28;20037;-41
2023/02/08 04:11:09;;;;;;;34.67;16.88;;;;;;;2.03;67.02;103962.69;4981522;28;20442;-44
2023/02/08 04:13:34;;;;;;;35.50;17.45;;;;;;;2.13;66.54;103966.19;4978265;28;20074;-41
2023/02/08 04:15:59;;;;;;;35.17;17.13;;;;;;;2.13;66.66;103964.53;4982124;28;20505;-43
2023/02/08 04:18:25;;;;;;;32.63;17.45;;;;;;;2.15;66.27;103954.34;4977996;28;20110;-43
2023/02/08 04:20:50;;;;;;;30.05;16.50;;;;;;;2.11;66.13;103958.31;4982111;28;20026;-45
2023/02/08 04:23:15;;;;;;;37.20;17.42;;;;;;;2.11;65.99;103962.53;4982234;28;20042;-42
2023/02/08 04:25:41;;;;;;;32.55;17.25;;;;;;;2.01;66.51;103955.63;4979654;28;20588;-41
2023/02/08 04:28:07;;;;;;;36.45;17.42;;;;;;;2.03;66.54;103960.13;4982820;28;20023;-43
2023/02/08 04:30:32;;;;;;;32.33;16.95;;;;;;;2.04;67.06;103950.75;4977619;28;20045;-42
2023/02/08 04:32:58;;;;;;;32.95;18.10;;;;;;;2.07;66.83;103945.00;4982084;28;20510;-42
2023/02/08 04:35:24;;;;;;;37.20;18.50;;;;;;;1.99;66.52;103942.59;4977888;28;20046;-40
2023/02/08 04:37:49;;;;;;;33.47;17.30;;;;;;;2.03;66.90;103952.41;4968362;28;20034;-45
2023/02/08 04:40:15;;;;;;;35.72;18.30;;;;;;;2.02;65.78;103948.00;4990182;28;20110;-43
2023/02/08 04:42:40;;;;;;;34.85;18.17;;;;;;;1.98;66.39;103950.16;4982992;28;20064;-40
2023/02/08 04:45:06;;;;;;;35.63;17.48;;;;;;;1.97;66.07;103945.75;4969377;28;20058;-41
2023/02/08 04:47:31;;;;;;;34.55;18.25;;;;;;;1.87;66.60;103946.56;4981348;28;20083;-42
2023/02/08 04:49:57;;;;;;;34.00;17.42;;;;;;;1.95;67.21;103939.59;4986180;28;20030;-43
2023/02/08 04:52:22;;;;;;;34.95;17.83;;;;;;;1.99;66.80;103939.09;4980013;28;20057;-41
2023/02/08 04:54:47;;;;;;;34.25;17.42;;;;;;;2.00;66.86;103934.13;4983628;28;20042;-47
2023/02/08 04:57:13;;;;;;;34.45;18.20;;;;;;;1.94;66.43;103925.81;4981623;28;20065;-42
2023/02/08 04:59:38;;;;;;;35.97;18.45;;;;;;;1.91;66.42;103925.50;4977912;28;21441;-43
2023/02/08 05:02:04;;;;;;;32.90;16.73;;;;;;;1.68;67.21;103918.88;4981394;28;20043;-41
2023/02/08 05:04:30;;;;;;;34.65;17.65;;;;;;;1.94;67.21;103919.75;4979786;28;20030;-41
2023/02/08 05:06:55;;;;;;;37.30;17.83;;;;;;;2.08;67.03;103921.97;4985031;28;20038;-40
2023/02/08 05:09:20;;;;;;;35.05;17.67;;;;;;;2.15;66.74;103916.66;4979941;28;20034;-42
2023/02/08 05:11:46;;;;;;;32.58;17.88;;;;;;;2.11;67.36;103917.13;4980738;28;20083;-41
2023/02/08 05:14:11;;;;;;;34.63;16.80;;;;;;;2.21;66.00;103913.75;4981089;28;20408;-41
2023/02/08 05:16:36;;;;;;;34.33;17.30;;;;;;;2.17;66.07;103916.81;4977430;28;20145;-40
2023/02/08 05:19:02;;;;;;;33.78;17.13;;;;;;;2.21;66.14;103916.31;4963746;28;20034;-40
2023/02/08 05:21:27;;;;;;;36.97;17.52;;;;;;;2.22;66.55;103918.16;4976371;28;20040;-42
2023/02/08 05:23:52;;;;;;;32.35;17.60;;;;;;;2.15;65.77;103928.59;4981073;28;20125;-42
2023/02/08 05:26:17;;;;;;;33.28;16.85;;;;;;;2.18;66.17;103937.53;4980432;28;20069;-42
2023/02/08 05:28:43;;;;;;;33.35;16.73;;;;;;;2.16;65.75;103933.91;4977937;28;20038;-41
2023/02/08 05:31:18;;;;;;;36.22;17.85;;;;;;;2.08;66.23;103929.69;4984476;28;20050;-41
2023/02/08 05:33:44;;;;;;;33.28;17.40;;;;;;;2.18;66.41;103926.34;4977829;28;20034;-42
2023/02/08 05:36:09;;;;;;;32.55;17.15;;;;;;;2.13;67.05;103923.34;4982673;28;20057;-42
2023/02/08 05:38:34;;;;;;;33.10;16.73;;;;;;;2.22;65.87;103928.44;4978862;28;20455;-43
2023/02/08 05:41:00;;;;;;;37.53;16.55;;;;;;;2.19;66.04;103923.94;4989288;28;20042;-42
2023/02/08 05:43:25;;;;;;;34.10;17.27;;;;;;;2.15;65.78;103908.03;4985750;28;20038;-41
2023/02/08 05:45:51;;;;;;;32.03;16.70;;;;;;;2.24;65.73;103908.91;4982975;28;20035;-44
2023/02/08 05:48:16;;;;;;;34.50;16.88;;;;;;;2.25;65.25;103909.06;4963472;28;20500;-41
2023/02/08 05:50:42;;;;;;;36.20;17.45;;;;;;;2.20;66.08;103899.97;4976403;28;20038;-41
2023/02/08 05:53:07;;;;;;;32.92;17.17;;;;;;;2.14;65.98;103899.38;4980162;28;20022;-41
2023/02/08 05:55:33;;;;;;;34.28;17.30;;;;;;;2.07;66.41;103899.59;4977027;28;20043;-43
2023/02/08 05:57:58;;;;;;;35.05;17.58;;;;;;;2.18;66.30;103898.03;4980442;28;20023;-41
2023/02/08 06:00:24;;;;;;;34.45;17.90;;;;;;;2.20;65.41;103899.97;4975992;28;20049;-41
2023/02/08 06:02:49;;;;;;;34.53;17.52;;;;;;;2.12;65.57;103900.94;4980477;28;20144;-40
2023/02/08 06:05:14;;;;;;;32.65;17.15;;;;;;;2.26;65.37;103894.50;4980572;28;20034;-42
2023/02/08 06:07:39;;;;;;;33.40;16.90;;;;;;;2.30;64.24;103896.63;4976431;28;20114;-42
2023/02/08 06:10:05;;;;;;;32.53;17.65;;;;;;;2.37;64.59;103901.59;4982199;28;20042;-39
2023/02/08 06:12:30;;;;;;;32.00;17.33;;;;;;;2.24;64.54;103903.75;4979273;28;20558;-40
2023/02/08 06:14:56;;;;;;;34.55;16.77;;;;;;;2.36;64.70;103907.50;4983939;28;20121;-45
2023/02/08 06:17:21;;;;;;;30.58;16.58;;;;;;;2.34;64.41;103909.00;4982452;28;20199;-40
2023/02/08 06:19:46;;;;;;;35.03;17.52;;;;;;;2.17;64.32;103898.78;4985591;28;20041;-41
2023/02/08 06:22:12;;;;;;;36.00;17.73;;;;;;;2.30;64.83;103901.78;4985681;28;20041;-40
2023/02/08 06:24:37;;;;;;;34.45;16.83;;;;;;;2.38;64.20;103899.13;4981845;28;20558;-40
2023/02/08 06:27:02;;;;;;;32.67;16.50;;;;;;;2.29;64.24;103907.69;4984505;28;20126;-44
2023/02/08 06:29:28;;;;;;;32.13;16.40;;;;;;;2.40;63.87;103917.31;4981255;28;20171;-39
2023/02/08 06:31:53;;;;;;;28.02;15.73;;;;;;;2.32;62.95;103924.31;4984610;28;20034;-44
2023/02/08 06:34:18;;;;;;;31.05;15.98;;;;;;;2.29;62.60;103929.19;4984456;28;20439;-44
2023/02/08 06:36:44;;;;;;;31.23;15.82;;;;;;;2.23;63.28;103930.25;4981411;28;20531;-41
2023/02/08 06:39:10;;;;;;;31.23;15.82;;;;;;;2.24;63.56;103924.34;4985440;28;20026;-41
2023/02/08 06:41:35;;;;;;;31.27;15.75;;;;;;;2.24;63.45;103919.22;4960081;28;20054;-42
2023/02/08 06:44:01;;;;;;;29.27;15.57;;;;;;;2.08;64.13;103914.25;4980916;28;20037;-39
2023/02/08 06:46:26;;;;;;;30.17;15.95;;;;;;;2.11;64.11;103909.41;4978531;28;20512;-40
2023/02/08 06:48:52;;;;;;;31.27;16.00;;;;;;;2.03;64.79;103916.38;4985476;28;20040;-40
2023/02/08 06:51:17;;;;;;;33.05;16.60;;;;;;;1.89;64.55;103905.53;4984791;28;20033;-40
2023/02/08 06:53:42;;;;;;;31.40;16.05;;;;;;;2.16;64.58;103907.25;4976447;28;20084;-44
2023/02/08 06:56:08;;;;;;;30.15;15.63;;;;;;;2.21;63.93;103909.50;4980363;28;20062;-40
2023/02/08 06:58:33;;;;;;;30.15;16.38;;;;;;;2.17;64.59;103907.41;4976774;28;20045;-41
2023/02/08 07:00:58;;;;;;;33.47;16.63;;;;;;;2.22;63.63;103906.19;4980803;28;20096;-43
2023/02/08 07:03:24;;;;;;;33.85;17.05;;;;;;;2.12;64.44;103906.06;4978236;28;20121;-40
2023/02/08 07:05:49;;;;;;;32.47;15.93;;;;;;;2.30;63.54;103904.34;4981759;28;20397;-43
2023/02/08 07:08:15;;;;;;;31.02;15.80;;;;;;;2.36;63.38;103907.50;4985495;28;20035;-40
2023/02/08 07:10:40;;;;;;;29.58;15.80;;;;;;;2.32;63.55;103908.84;4980702;28;20045;-42
2023/02/08 07:13:06;;;;;;;32.45;16.38;;;;;;;2.28;62.68;103906.75;4969907;28;20076;-41
2023/02/08 07:15:32;;;;;;;32.22;16.17;;;;;;;2.30;62.95;103907.81;4984640;28;20038;-41
2023/02/08 07:17:57;;;;;;;30.00;15.65;;;;;;;2.25;63.52;103909.06;4988547;28;20030;-38
2023/02/08 07:20:23;;;;;;;35.65;16.60;;;;;;;2.27;62.89;103904.03;4983737;28;20042;-41
2023/02/08 07:22:48;;;;;;;30.00;16.17;;;;;;;2.05;64.03;103908.81;4987808;28;20061;-40
2023/02/08 07:25:14;;;;;;;28.13;15.13;;;;;;;2.24;64.09;103899.53;4987125;28;20054;-42
2023/02/08 07:27:39;;;;;;;31.23;16.42;;;;;;;2.20;63.81;103901.63;4980275;28;20401;-43
2023/02/08 07:30:06;;;;;;;31.95;15.90;;;;;;;2.21;63.73;103899.22;4984374;28;20041;-43
2023/02/08 07:32:32;;;;;;;32.08;16.00;;;;;;;2.22;63.37;103894.97;4981718;28;20045;-40
2023/02/08 07:34:58;;;;;;;33.50;16.38;;;;;;;2.05;63.34;103903.66;4986657;28;20042;-40
2023/02/08 07:37:24;;;;;;;31.15;16.23;;;;;;;2.10;63.45;103899.88;4965771;28;20044;-40
2023/02/08 07:39:49;;;;;;;30.58;16.13;;;;;;;2.16;63.28;103896.97;4986889;28;20527;-40
2023/02/08 07:42:15;;;;;;;29.67;15.95;;;;;;;2.29;62.77;103897.38;4987824;28;20042;-45
2023/02/08 07:44:40;;;;;;;33.42;15.57;;;;;;;1.77;63.93;103896.66;4986852;28;20031;-40
2023/02/08 07:47:05;;;;;;;34.25;16.10;;;;;;;1.90;63.91;103899.63;4986219;28;20030;-42
2023/02/08 07:49:31;;;;;;;34.38;16.05;;;;;;;1.84;64.34;103894.78;4980637;28;20030;-40
2023/02/08 07:52:00;;;;;;;32.13;16.60;;;;;;;1.97;63.64;103892.63;4965195;28;20125;-40
2023/02/08 07:54:26;;;;;;;33.40;16.40;;;;;;;2.25;63.33;103892.72;4979283;28;20038;-43
2023/02/08 07:56:51;;;;;;;28.77;15.75;;;;;;;2.01;63.83;103891.28;4983135;28;20524;-42
2023/02/08 07:59:16;;;;;;;32.03;16.35;;;;;;;2.00;63.48;103885.22;4983575;28;20030;-42
2023/02/08 08:01:41;;;;;;;34.00;16.00;;;;;;;2.18;63.20;103882.59;4961136;28;20523;-40
2023/02/08 08:04:07;;;;;;;30.45;16.02;;;;;;;1.83;63.54;103889.53;4982039;28;20023;-42
2023/02/08 08:06:32;;;;;;;35.13;17.00;;;;;;;2.01;63.63;103884.44;4978667;28;20250;-42
2023/02/08 08:08:58;;;;;;;33.05;16.15;;;;;;;2.06;62.94;103886.56;4983032;28;20058;-42
2023/02/08 08:11:23;;;;;;;30.80;15.45;;;;;;;2.27;62.62;103886.03;4981192;28;20404;-43
2023/02/08 08:13:50;;;;;;;32.97;17.10;;;;;;;2.28;62.90;103891.31;4986735;28;20030;-46
2023/02/08 08:16:15;;;;;;;31.73;16.38;;;;;;;2.67;61.96;103893.25;4983294;28;20030;-40
2023/02/08 08:18:41;;;;;;;31.92;16.75;;;;;;;2.79;61.67;103897.88;4978767;28;20819;-40
2023/02/08 08:21:07;;;;;;;32.95;17.42;;;;;;;2.73;61.64;103893.84;4983608;28;20205;-40
2023/02/08 08:23:32;;;;;;;30.02;16.15;;;;;;;2.80;62.43;103894.53;4980033;28;20030;-42
2023/02/08 08:25:58;;;;;;;33.63;17.52;;;;;;;3.14;60.93;103883.06;4982857;28;20400;-42
2023/02/08 08:28:24;;;;;;;31.80;16.63;;;;;;;3.21;60.96;103887.13;4979431;28;20038;-40
2023/02/08 08:30:50;;;;;;;32.22;16.95;;;;;;;3.00;60.67;103890.28;4982224;28;20034;-44
2023/02/08 08:33:15;;;;;;;34.72;17.67;;;;;;;3.01;61.21;103890.44;4982166;28;20516;-43
2023/02/08 08:35:42;;;;;;;32.42;16.40;;;;;;;2.84;61.87;103893.16;4978218;28;20039;-42
2023/02/08 08:38:08;;;;;;;32.65;17.23;;;;;;;3.04;60.86;103883.00;4985230;28;20026;-41
2023/02/08 08:40:33;;;;;;;33.08;16.75;;;;;;;3.50;59.57;103882.00;4980820;28;20065;-41
2023/02/08 08:42:59;;;;;;;35.60;17.38;;;;;;;3.54;60.05;103882.41;4984453;28;20062;-42
2023/02/08 08:45:24;;;;;;;37.90;17.33;;;;;;;3.49;60.40;103880.19;4981731;28;20041;-40
2023/02/08 08:47:49;;;;;;;35.55;17.20;;;;;;;3.61;60.01;103870.97;4989576;28;20032;-41
2023/02/08 08:50:15;;;;;;;35.00;17.33;;;;;;;3.76;59.82;103877.50;4987836;28;20546;-42
2023/02/08 08:52:41;;;;;;;38.95;19.13;;;;;;;3.94;58.34;103875.63;4977603;28;20576;-40
2023/02/08 08:55:07;;;;;;;33.53;18.10;;;;;;;4.12;58.81;103868.59;4981580;28;20038;-42
2023/02/08 08:57:32;;;;;;;36.60;18.23;;;;;;;3.91;59.48;103876.25;4978117;28;20038;-40
2023/02/08 08:59:58;;;;;;;35.33;18.52;;;;;;;3.82;59.03;103877.13;4981418;28;20024;-42
2023/02/08 09:02:23;;;;;;;35.92;18.35;;;;;;;4.12;58.58;103878.91;4977425;28;20085;-40
2023/02/08 09:04:48;;;;;;;32.40;18.15;;;;;;;3.91;58.87;103876.25;4980590;28;20223;-43
2023/02/08 09:07:14;;;;;;;38.22;18.13;;;;;;;4.38;58.01;103883.00;4983929;28;20053;-42
2023/02/08 09:09:40;;;;;;;34.33;17.60;;;;;;;4.61;57.26;103882.38;4979733;28;20066;-41
2023/02/08 09:12:06;;;;;;;36.30;18.75;;;;;;;4.65;57.85;103874.09;4980759;28;20352;-40
2023/02/08 09:14:32;;;;;;;37.53;19.13;;;;;;;4.84;57.72;103880.03;4977548;28;20052;-40
2023/02/08 09:16:57;;;;;;;36.72;18.80;;;;;;;4.71;57.48;103884.94;4980444;28;20026;-38
2023/02/08 09:19:23;;;;;;;36.45;19.40;;;;;;;4.57;57.22;103893.22;4975148;28;20057;-40
2023/02/08 09:21:48;;;;;;;38.20;19.15;;;;;;;4.92;56.50;103880.69;4980904;28;20562;-43
2023/02/08 09:24:15;;;;;;;42.75;19.15;;;;;;;4.96;56.22;103887.94;4981293;28;20035;-42
2023/02/08 09:26:41;;;;;;;36.65;18.70;;;;;;;5.20;56.40;103879.63;4977931;28;20141;-40
2023/02/08 09:29:07;;;;;;;37.45;19.17;;;;;;;5.19;56.07;103882.97;4979849;28;20478;-42
2023/02/08 09:31:36;;;;;;;37.78;19.70;;;;;;;5.11;56.11;103890.91;4976584;28;20042;-41
2023/02/08 09:34:03;;;;;;;37.03;18.83;;;;;;;4.97;56.51;103887.16;4980997;28;20034;-41
2023/02/08 09:36:32;;;;;;;35.13;19.23;;;;;;;5.12;56.43;103895.31;4977256;28;20038;-40
2023/02/08 09:39:00;;;;;;;34.13;18.13;;;;;;;5.45;55.11;103886.81;4981605;28;20030;-44
2023/02/08 09:41:35;;;;;;;38.33;19.35;;;;;;;5.45;55.36;103885.13;4977147;28;20518;-42
2023/02/08 09:44:23;;;;;;;34.67;18.70;;;;;;;5.39;55.63;103888.91;4983252;28;20100;-40
2023/02/08 09:47:12;;;;;;;41.08;19.13;;;;;;;5.32;55.81;103890.97;4967065;28;20099;-42
2023/02/08 09:49:45;;;;;;;36.00;19.42;;;;;;;5.46;55.58;103889.53;4982512;28;20521;-42
2023/02/08 09:52:15;;;;;;;39.28;19.20;;;;;;;5.43;56.04;103881.50;4986952;28;20488;-39
2023/02/08 09:54:56;;;;;;;37.58;19.33;;;;;;;5.76;54.93;103877.28;4977379;28;20034;-42
2023/02/08 09:57:25;;;;;;;38.13;19.48;;;;;;;5.51;55.71;103880.47;4976620;28;20030;-44
2023/02/08 09:59:55;;;;;;;37.15;19.38;;;;;;;5.91;54.44;103868.19;5044871;23;20405;-75
2023/02/08 10:02:33;;;;;;;44.10;19.70;;;;;;;5.78;55.36;103873.13;5057632;28;20039;-77
2023/02/08 10:05:09;;;;;;;35.25;19.13;;;;;;;5.95;54.84;103863.38;5044311;28;20516;-75
2023/02/08 10:07:35;;;;;;;41.47;19.55;;;;;;;5.94;54.89;103881.38;5057552;28;20077;-76
2023/02/08 10:10:04;;;;;;;35.08;19.38;;;;;;;5.94;54.21;103874.50;5062348;28;20028;-75
2023/02/08 10:12:48;;;;;;;36.50;18.83;;;;;;;6.06;53.71;103878.06;5058016;28;20028;-75
2023/02/08 10:15:28;;;;;;;36.47;18.92;;;;;;;6.16;54.81;103889.19;5065139;28;20118;-76
2023/02/08 10:18:18;;;;;;;34.13;18.63;;;;;;;6.23;54.48;103897.53;5058354;28;20040;-77
2023/02/08 10:21:12;;;;;;;34.83;17.92;;;;;;;6.26;53.72;103892.59;5041440;28;20028;-74
2023/02/08 10:23:41;;;;;;;42.05;18.92;;;;;;;6.37;53.36;103899.53;5063614;28;20136;-75
2023/02/08 10:26:25;;;;;;;34.67;19.10;;;;;;;6.15;53.77;103895.13;5061401;28;20497;-76
2023/02/08 10:29:18;;;;;;;35.40;18.25;;;;;;;6.03;53.42;103895.97;5040271;28;20531;-76
2023/02/08 10:32:13;;;;;;;34.13;17.90;;;;;;;6.41;52.74;103893.78;5057863;28;20032;-76
2023/02/08 10:34:50;;;;;;;36.28;18.05;;;;;;;6.55;52.45;103891.38;5058968;28;20036;-76
2023/02/08 10:37:18;;;;;;;44.40;18.33;;;;;;;6.69;51.36;103888.19;5061968;28;20040;-77
2023/02/08 10:39:44;;;;;;;38.55;18.20;;;;;;;6.74;50.89;103882.56;5058310;28;20032;-76
2023/02/08 10:42:21;;;;;;;32.70;17.50;;;;;;;6.76;50.35;103886.19;5047920;28;20044;-76
2023/02/08 10:45:20;;;;;;;34.65;17.67;;;;;;;6.70;51.27;103885.72;5050692;28;20079;-75
2023/02/08 10:47:55;;;;;;;35.10;18.05;;;;;;;6.73;50.90;103888.53;5061093;28;20028;-77
2023/02/08 10:50:39;;;;;;;32.10;18.08;;;;;;;6.98;49.43;103888.69;5063894;28;20040;-75
2023/02/08 10:53:05;;;;;;;33.35;17.50;;;;;;;6.97;49.79;103879.09;5063064;28;20115;-76
2023/02/08 10:55:33;;;;;;;34.65;17.20;;;;;;;7.12;48.98;103880.28;5061745;28;20389;-77
2023/02/08 10:58:03;;;;;;;32.97;17.15;;;;;;;7.20;49.19;103871.34;5065603;28;20035;-77
2023/02/08 11:00:37;;;;;;;32.67;17.15;;;;;;;7.12;48.41;103875.09;5063881;28;20329;-78
2023/02/08 11:03:22;;;;;;;;;;;;;;;7.19;47.63;103866.97;5062982;28;20040;-76
2023/02/08 11:05:48;;;;;;;34.83;16.55;;;;;;;7.12;47.64;103863.81;5061480;28;19913;-76
2023/02/08 11:08:18;;;;;;;30.05;16.52;;;;;;;7.13;48.52;103863.94;5065542;28;20036;-76
2023/02/08 11:11:08;;;;;;;34.35;17.77;;;;;;;7.47;47.43;103867.31;5060905;28;20032;-75
2023/02/08 11:13:47;;;;;;;31.92;16.58;;;;;;;7.67;46.72;103866.19;5040573;28;20040;-77
2023/02/08 11:16:23;;;;;;;36.63;16.73;;;;;;;7.73;46.45;103864.94;5047456;28;20029;-75
2023/02/08 11:18:54;;;;;;;32.65;15.93;;;;;;;7.32;45.99;103851.50;5060548;28;20115;-76
2023/02/08 11:21:24;;;;;;;33.22;16.00;;;;;;;7.74;45.61;103853.72;5042449;28;20039;-75
2023/02/08 11:23:52;;;;;;;33.35;15.80;;;;;;;7.84;44.56;103844.03;5047254;28;20489;-76
2023/02/08 11:26:36;;;;;;;29.10;15.30;;;;;;;7.91;43.93;103844.56;5065140;28;20511;-75
2023/02/08 11:29:18;;;;;;;28.30;14.90;;;;;;;8.01;43.96;103836.63;5060760;28;20033;-75